createdAt,value
2022-07-27T00:01:02.361Z,18.40
2022-07-27T00:03:31.778Z,18.70
2022-07-27T00:05:59.550Z,18.20
2022-07-27T00:08:27.387Z,18.50
2022-07-27T00:10:55.386Z,18.30
2022-07-27T00:13:23.242Z,18.40
2022-07-27T00:15:51.485Z,18.30
2022-07-27T00:18:19.354Z,18.30
2022-07-27T00:20:48.875Z,17.90
2022-07-27T00:23:16.782Z,17.70
2022-07-27T00:25:44.600Z,17.50
2022-07-27T00:28:12.393Z,17.30
2022-07-27T00:30:40.274Z,17.20
2022-07-27T00:33:08.405Z,17.20
2022-07-27T00:35:36.270Z,17.20
2022-07-27T00:38:06.897Z,17.90
2022-07-27T00:40:34.783Z,18.10
2022-07-27T00:43:02.648Z,18.30
2022-07-27T00:45:30.705Z,17.70
2022-07-27T00:47:58.482Z,17.60
2022-07-27T00:50:26.848Z,17.70
2022-07-27T00:52:55.543Z,17.40
2022-07-27T00:55:25.993Z,17.40
2022-07-27T00:57:58.919Z,17.70
2022-07-27T01:00:27.634Z,17.70
2022-07-27T01:02:57.323Z,17.20
2022-07-27T01:05:35.840Z,16.70
2022-07-27T01:08:06.652Z,16.50
2022-07-27T01:10:36.542Z,16.30
2022-07-27T01:13:04.817Z,16.00
2022-07-27T01:15:36.704Z,16.20
2022-07-27T01:18:11.301Z,17.50
2022-07-27T01:20:40.884Z,17.80
2022-07-27T01:23:10.842Z,17.50
2022-07-27T01:25:41.150Z,17.10
2022-07-27T01:28:08.986Z,17.00
2022-07-27T01:30:36.799Z,16.70
2022-07-27T01:33:05.913Z,16.80
2022-07-27T01:35:34.300Z,16.90
2022-07-27T01:38:02.284Z,17.20
2022-07-27T01:40:31.813Z,17.80
2022-07-27T01:42:59.657Z,17.50
2022-07-27T01:45:27.521Z,16.80
2022-07-27T01:47:55.387Z,16.80
2022-07-27T01:50:23.258Z,16.40
2022-07-27T01:52:51.160Z,16.60
2022-07-27T01:55:18.997Z,16.70
2022-07-27T01:57:48.168Z,16.60
2022-07-27T02:00:16.334Z,16.60
2022-07-27T02:02:44.320Z,16.60
2022-07-27T02:05:12.437Z,16.50
2022-07-27T02:07:40.888Z,16.30
2022-07-27T02:10:09.943Z,16.20
2022-07-27T02:12:37.405Z,16.40
2022-07-27T02:15:13.429Z,17.40
2022-07-27T02:17:44.853Z,17.00
2022-07-27T02:20:14.233Z,17.90
2022-07-27T02:22:42.409Z,17.60
2022-07-27T02:25:11.775Z,17.20
2022-07-27T02:27:40.734Z,16.80
2022-07-27T02:30:12.992Z,16.60
2022-07-27T02:32:44.405Z,16.70
2022-07-27T02:35:19.209Z,16.70
2022-07-27T02:37:48.399Z,16.60
2022-07-27T02:40:17.996Z,16.40
2022-07-27T02:42:46.634Z,16.10
2022-07-27T02:45:15.926Z,15.90
2022-07-27T02:47:44.651Z,15.70
2022-07-27T02:50:12.826Z,15.90
2022-07-27T02:52:41.104Z,15.80
2022-07-27T02:55:10.367Z,15.60
2022-07-27T02:57:41.191Z,15.50
2022-07-27T03:00:12.420Z,15.30
2022-07-27T03:02:41.886Z,15.20
2022-07-27T03:05:11.496Z,15.10
2022-07-27T03:07:39.642Z,15.10
2022-07-27T03:10:08.838Z,15.10
2022-07-27T03:12:36.655Z,15.90
2022-07-27T03:15:05.057Z,16.00
2022-07-27T03:17:33.345Z,16.30
2022-07-27T03:20:02.573Z,16.20
2022-07-27T03:22:32.547Z,15.40
2022-07-27T03:25:01.281Z,15.30
2022-07-27T03:27:29.811Z,15.20
2022-07-27T03:29:58.075Z,14.80
2022-07-27T03:32:26.026Z,14.70
2022-07-27T03:34:53.949Z,14.60
2022-07-27T03:37:23.172Z,14.40
2022-07-27T03:39:51.112Z,14.90
2022-07-27T03:42:19.060Z,15.60
2022-07-27T03:44:46.965Z,16.10
2022-07-27T03:47:14.732Z,16.20
2022-07-27T03:49:42.524Z,15.60
2022-07-27T03:52:15.678Z,15.10
2022-07-27T03:54:47.576Z,14.80
2022-07-27T03:57:16.005Z,14.60
2022-07-27T03:59:44.254Z,14.40
2022-07-27T04:02:12.151Z,15.00
2022-07-27T04:04:40.048Z,17.20
2022-07-27T04:07:07.970Z,18.20
2022-07-27T04:09:37.576Z,17.80
2022-07-27T04:12:09.157Z,16.90
2022-07-27T04:14:37.048Z,16.80
2022-07-27T04:17:05.121Z,15.90
2022-07-27T04:19:33.141Z,15.50
2022-07-27T04:22:00.916Z,16.20
2022-07-27T04:24:28.758Z,15.70
2022-07-27T04:26:56.589Z,15.20
2022-07-27T04:29:25.808Z,15.00
2022-07-27T04:31:53.612Z,15.30
2022-07-27T04:34:21.641Z,16.10
2022-07-27T04:36:50.010Z,16.00
2022-07-27T04:39:17.913Z,16.60
2022-07-27T04:41:45.811Z,17.00
2022-07-27T04:44:13.650Z,17.30
2022-07-27T04:46:42.813Z,17.50
2022-07-27T04:49:10.977Z,17.30
2022-07-27T04:51:39.073Z,17.90
2022-07-27T04:54:06.938Z,18.50
2022-07-27T04:56:34.746Z,18.30
2022-07-27T04:59:02.655Z,17.20
2022-07-27T05:01:34.963Z,17.50
2022-07-27T05:04:05.226Z,17.00
2022-07-27T05:06:33.288Z,16.60
2022-07-27T05:09:01.182Z,16.60
2022-07-27T05:11:29.020Z,17.40
2022-07-27T05:13:57.073Z,17.70
2022-07-27T05:16:28.518Z,18.00
2022-07-27T05:18:57.445Z,18.20
2022-07-27T05:21:27.367Z,18.50
2022-07-27T05:23:55.631Z,18.10
2022-07-27T05:26:23.463Z,17.60
2022-07-27T05:28:51.410Z,17.40
2022-07-27T05:31:19.621Z,17.20
2022-07-27T05:33:49.814Z,16.90
2022-07-27T05:36:19.134Z,16.60
2022-07-27T05:38:48.357Z,16.60
2022-07-27T05:41:16.394Z,16.90
2022-07-27T05:43:44.579Z,17.00
2022-07-27T05:46:12.611Z,17.00
2022-07-27T05:48:40.592Z,17.00
2022-07-27T05:51:09.363Z,17.00
2022-07-27T05:53:37.204Z,17.10
2022-07-27T05:56:07.909Z,17.30
2022-07-27T05:58:35.821Z,17.40
2022-07-27T06:01:03.892Z,17.50
2022-07-27T06:03:32.035Z,17.60
2022-07-27T06:06:14.226Z,17.90
2022-07-27T06:08:42.066Z,18.30
2022-07-27T06:11:11.281Z,18.40
2022-07-27T06:13:42.424Z,18.40
2022-07-27T06:16:11.158Z,18.40
2022-07-27T06:18:39.098Z,18.40
2022-07-27T06:21:06.985Z,18.60
2022-07-27T06:23:35.003Z,18.80
2022-07-27T06:26:02.830Z,19.10
2022-07-27T06:28:32.176Z,19.80
2022-07-27T06:31:00.321Z,19.60
2022-07-27T06:33:29.460Z,19.60
2022-07-27T06:35:58.607Z,19.60
2022-07-27T06:38:27.113Z,19.60
2022-07-27T06:40:55.573Z,19.90
2022-07-27T06:43:24.912Z,19.70
2022-07-27T06:45:54.574Z,19.20
2022-07-27T06:48:23.045Z,19.90
2022-07-27T06:50:52.208Z,19.90
2022-07-27T06:53:21.313Z,19.50
2022-07-27T06:55:49.459Z,19.30
2022-07-27T06:58:17.845Z,19.80
2022-07-27T07:00:45.885Z,20.00
2022-07-27T07:03:15.050Z,20.10
2022-07-27T07:05:44.768Z,20.00
2022-07-27T07:08:13.549Z,20.00
2022-07-27T07:10:42.035Z,19.80
2022-07-27T07:13:10.459Z,19.80
2022-07-27T07:15:39.986Z,20.10
2022-07-27T07:18:08.828Z,20.20
2022-07-27T07:20:38.785Z,20.20
2022-07-27T07:23:07.261Z,20.20
2022-07-27T07:25:35.846Z,19.80
2022-07-27T07:28:03.641Z,19.50
2022-07-27T07:30:31.986Z,19.70
2022-07-27T07:33:00.117Z,19.90
2022-07-27T07:35:28.113Z,20.20
2022-07-27T07:37:57.266Z,20.40
2022-07-27T07:40:42.835Z,20.40
2022-07-27T07:43:13.083Z,20.10
2022-07-27T07:45:50.689Z,20.20
2022-07-27T07:48:20.880Z,20.20
2022-07-27T07:50:51.923Z,20.40
2022-07-27T07:53:22.756Z,20.60
2022-07-27T07:55:51.255Z,20.70
2022-07-27T07:58:19.453Z,21.00
2022-07-27T08:00:47.573Z,21.00
2022-07-27T08:03:15.994Z,21.20
2022-07-27T08:05:43.952Z,21.00
2022-07-27T08:08:12.100Z,20.80
2022-07-27T08:10:41.259Z,20.70
2022-07-27T08:13:09.632Z,21.10
2022-07-27T08:15:37.463Z,22.40
2022-07-27T08:18:06.271Z,22.40
2022-07-27T08:20:34.450Z,21.80
2022-07-27T08:23:02.568Z,21.20
2022-07-27T08:25:30.594Z,20.90
2022-07-27T08:28:00.290Z,21.00
2022-07-27T08:30:33.076Z,21.00
2022-07-27T08:33:03.834Z,21.90
2022-07-27T08:35:33.459Z,22.80
2022-07-27T08:38:01.922Z,23.30
2022-07-27T08:40:40.306Z,24.10
2022-07-27T08:43:11.424Z,23.70
2022-07-27T08:45:41.398Z,23.30
2022-07-27T08:48:13.710Z,23.00
2022-07-27T08:50:42.749Z,22.80
2022-07-27T08:53:13.443Z,22.60
2022-07-27T08:55:43.265Z,23.30
2022-07-27T08:58:13.668Z,24.30
2022-07-27T09:00:46.217Z,23.70
2022-07-27T09:03:19.515Z,23.60
2022-07-27T09:05:50.054Z,23.60
2022-07-27T09:08:22.077Z,23.40
2022-07-27T09:10:49.941Z,23.30
2022-07-27T09:13:21.695Z,23.90
2022-07-27T09:18:40.533Z,24.10
2022-07-27T09:21:10.294Z,24.30
2022-07-27T09:23:38.782Z,23.90
2022-07-27T09:26:30.512Z,23.70
2022-07-27T09:29:03.547Z,23.90
2022-07-27T09:31:31.626Z,23.40
2022-07-27T09:34:01.856Z,23.60
2022-07-27T09:36:31.051Z,23.90
2022-07-27T09:39:03.333Z,24.10
2022-07-27T09:41:42.410Z,24.50
2022-07-27T09:44:31.161Z,24.50
2022-07-27T09:47:00.492Z,24.60
2022-07-27T09:49:30.469Z,24.60
2022-07-27T09:52:01.761Z,24.90
2022-07-27T09:54:43.451Z,24.80
2022-07-27T09:57:11.822Z,24.80
2022-07-27T09:59:40.991Z,24.40
2022-07-27T10:02:09.406Z,24.30
2022-07-27T10:04:37.401Z,24.60
2022-07-27T10:07:08.357Z,24.90
2022-07-27T10:09:38.723Z,25.70
2022-07-27T10:12:07.213Z,25.90
2022-07-27T10:14:35.170Z,25.00
2022-07-27T10:17:04.972Z,24.50
2022-07-27T10:19:37.914Z,24.40
2022-07-27T10:22:05.791Z,25.00
2022-07-27T10:24:37.113Z,25.00
2022-07-27T10:27:20.625Z,24.40
2022-07-27T10:29:49.368Z,23.90
2022-07-27T10:32:26.463Z,24.30
2022-07-27T10:34:54.746Z,24.90
2022-07-27T10:37:26.779Z,25.30
2022-07-27T10:40:16.907Z,24.50
2022-07-27T10:42:49.016Z,24.00
2022-07-27T10:45:21.459Z,24.50
2022-07-27T10:47:52.307Z,24.50
2022-07-27T10:50:31.729Z,24.00
2022-07-27T10:53:03.184Z,23.70
2022-07-27T10:55:45.006Z,23.30
2022-07-27T10:58:44.567Z,23.20
2022-07-27T11:01:14.748Z,23.60
2022-07-27T11:03:52.609Z,23.60
2022-07-27T11:06:34.009Z,23.60
2022-07-27T11:11:55.743Z,24.10
2022-07-27T11:14:31.270Z,23.80
2022-07-27T11:17:39.802Z,23.60
2022-07-27T11:19:54.745Z,23.60
2022-07-27T11:25:21.474Z,24.00
2022-07-27T11:27:50.460Z,24.20
2022-07-27T11:30:27.156Z,24.40
2022-07-27T11:32:55.840Z,25.00
2022-07-27T11:35:25.113Z,24.90
2022-07-27T11:38:00.318Z,24.50
2022-07-27T11:40:56.110Z,24.80
2022-07-27T11:43:36.965Z,24.90
2022-07-27T11:46:16.968Z,24.90
2022-07-27T11:49:07.153Z,25.30
2022-07-27T11:51:39.932Z,24.90
2022-07-27T11:54:09.931Z,25.40
2022-07-27T11:56:39.732Z,24.90
2022-07-27T11:59:13.304Z,24.80
2022-07-27T12:01:44.083Z,24.40
2022-07-27T12:04:30.226Z,24.50
2022-07-27T12:07:03.024Z,25.10
2022-07-27T12:09:36.815Z,24.70
2022-07-27T12:12:11.735Z,24.50
2022-07-27T12:14:41.428Z,24.60
2022-07-27T12:17:38.454Z,24.20
2022-07-27T12:20:09.059Z,23.70
2022-07-27T12:22:40.583Z,23.40
2022-07-27T12:25:15.921Z,23.40
2022-07-27T12:27:55.280Z,23.30
2022-07-27T12:30:31.139Z,23.30
2022-07-27T12:32:59.226Z,23.40
2022-07-27T12:35:34.298Z,23.80
2022-07-27T12:38:08.466Z,24.20
2022-07-27T12:40:44.877Z,24.40
2022-07-27T12:43:17.312Z,25.00
2022-07-27T12:45:45.772Z,24.80
2022-07-27T12:48:16.516Z,24.40
2022-07-27T12:50:45.875Z,24.50
2022-07-27T12:53:17.439Z,24.30
2022-07-27T12:55:45.773Z,24.40
2022-07-27T12:58:14.891Z,24.20
2022-07-27T13:00:42.930Z,24.10
2022-07-27T13:03:11.023Z,24.10
2022-07-27T13:05:38.852Z,24.20
2022-07-27T13:08:07.782Z,24.30
2022-07-27T13:10:37.601Z,23.90
2022-07-27T13:13:06.150Z,23.80
2022-07-27T13:15:34.373Z,24.00
2022-07-27T13:18:02.214Z,24.00
2022-07-27T13:20:30.349Z,24.40
2022-07-27T13:22:58.152Z,24.50
2022-07-27T13:25:26.036Z,24.70
2022-07-27T13:27:55.297Z,24.80
2022-07-27T13:30:24.591Z,24.40
2022-07-27T13:32:52.482Z,24.10
2022-07-27T13:35:20.423Z,24.30
2022-07-27T13:37:48.426Z,24.20
2022-07-27T13:40:16.317Z,24.20
2022-07-27T13:42:44.218Z,24.10
2022-07-27T13:45:14.076Z,24.50
2022-07-27T13:47:42.671Z,24.70
2022-07-27T13:50:18.383Z,24.50
2022-07-27T13:52:47.325Z,24.80
2022-07-27T13:55:15.951Z,24.50
2022-07-27T13:57:43.893Z,24.50
2022-07-27T14:00:14.614Z,24.50
2022-07-27T14:02:42.884Z,24.60
2022-07-27T14:05:12.885Z,24.80
2022-07-27T14:07:42.098Z,25.00
2022-07-27T14:10:28.842Z,25.40
2022-07-27T14:12:59.327Z,25.50
2022-07-27T14:15:29.309Z,25.10
2022-07-27T14:17:57.300Z,24.90
2022-07-27T14:20:25.241Z,25.10
2022-07-27T14:22:53.069Z,25.00
2022-07-27T14:25:20.937Z,25.20
2022-07-27T14:27:48.727Z,25.10
2022-07-27T14:30:20.711Z,25.30
2022-07-27T14:32:50.405Z,25.20
2022-07-27T14:35:18.522Z,25.30
2022-07-27T14:37:46.729Z,24.80
2022-07-27T14:40:15.664Z,24.40
2022-07-27T14:42:43.558Z,24.20
2022-07-27T14:45:12.191Z,24.30
2022-07-27T14:47:40.032Z,23.80
2022-07-27T14:50:09.826Z,23.60
2022-07-27T14:52:37.731Z,23.70
2022-07-27T14:55:06.331Z,23.80
2022-07-27T14:57:34.225Z,23.80
2022-07-27T15:00:06.897Z,23.90
2022-07-27T15:02:35.130Z,23.90
2022-07-27T15:05:03.056Z,23.80
2022-07-27T15:07:32.342Z,23.90
2022-07-27T15:10:00.212Z,23.70
2022-07-27T15:12:28.504Z,23.80
2022-07-27T15:14:57.137Z,24.10
2022-07-27T15:17:25.351Z,24.20
2022-07-27T15:19:53.193Z,24.00
2022-07-27T15:22:21.155Z,24.00
2022-07-27T15:24:53.995Z,24.20
2022-07-27T15:27:22.714Z,24.10
2022-07-27T15:29:50.606Z,24.00
2022-07-27T15:32:18.453Z,23.90
2022-07-27T15:34:47.181Z,23.90
2022-07-27T15:37:14.993Z,23.40
2022-07-27T15:39:42.808Z,23.10
2022-07-27T15:42:12.060Z,23.10
2022-07-27T15:44:41.339Z,23.20
2022-07-27T15:47:09.358Z,23.20
2022-07-27T15:49:37.355Z,23.20
2022-07-27T15:52:05.680Z,23.30
2022-07-27T15:54:38.194Z,23.40
2022-07-27T15:57:11.465Z,23.50
2022-07-27T15:59:39.258Z,23.50
2022-07-27T16:02:07.096Z,23.50
2022-07-27T16:04:35.287Z,23.50
2022-07-27T16:07:03.065Z,23.70
2022-07-27T16:09:31.032Z,23.70
2022-07-27T16:11:58.920Z,23.70
2022-07-27T16:14:28.049Z,23.70
2022-07-27T16:16:55.864Z,23.70
2022-07-27T16:19:23.634Z,23.50
2022-07-27T16:21:54.968Z,23.40
2022-07-27T16:24:24.704Z,23.30
2022-07-27T16:26:52.917Z,23.30
2022-07-27T16:29:20.723Z,23.20
2022-07-27T16:31:51.226Z,23.20
2022-07-27T16:34:19.235Z,23.00
2022-07-27T16:36:48.998Z,23.00
2022-07-27T16:39:17.009Z,22.90
2022-07-27T16:41:47.155Z,22.80
2022-07-27T16:44:15.213Z,22.80
2022-07-27T16:46:43.505Z,22.70
2022-07-27T16:49:13.786Z,22.60
2022-07-27T16:51:42.283Z,22.70
2022-07-27T16:54:10.160Z,22.60
2022-07-27T16:56:38.722Z,22.60
2022-07-27T16:59:06.519Z,22.70
2022-07-27T17:01:34.706Z,22.80
2022-07-27T17:04:02.637Z,22.70
2022-07-27T17:06:31.927Z,22.50
2022-07-27T17:08:59.750Z,22.50
2022-07-27T17:11:27.564Z,22.60
2022-07-27T17:13:58.993Z,22.50
2022-07-27T17:16:27.373Z,22.50
2022-07-27T17:18:55.403Z,22.50
2022-07-27T17:21:23.211Z,22.40
2022-07-27T17:23:52.513Z,22.40
2022-07-27T17:26:20.361Z,22.40
2022-07-27T17:28:52.210Z,22.50
2022-07-27T17:31:21.125Z,22.50
2022-07-27T17:33:49.394Z,22.50
2022-07-27T17:36:17.547Z,22.60
2022-07-27T17:38:46.536Z,22.50
2022-07-27T17:41:21.907Z,22.40
2022-07-27T17:43:52.684Z,22.40
2022-07-27T17:46:20.765Z,22.70
2022-07-27T17:48:48.807Z,22.80
2022-07-27T17:51:17.126Z,22.60
2022-07-27T17:53:44.968Z,22.60
2022-07-27T17:56:13.265Z,22.60
2022-07-27T17:58:46.717Z,22.80
2022-07-27T18:01:14.599Z,22.80
2022-07-27T18:03:42.708Z,22.90
2022-07-27T18:06:10.520Z,22.90
2022-07-27T18:08:38.775Z,22.90
2022-07-27T18:11:07.130Z,22.90
2022-07-27T18:13:37.833Z,22.90
2022-07-27T18:16:11.603Z,22.80
2022-07-27T18:18:40.218Z,22.70
2022-07-27T18:21:08.641Z,22.60
2022-07-27T18:23:36.820Z,22.70
2022-07-27T18:26:05.164Z,22.50
2022-07-27T18:28:39.189Z,22.30
2022-07-27T18:31:12.184Z,22.00
2022-07-27T18:33:45.634Z,21.70
2022-07-27T18:36:13.870Z,21.60
2022-07-27T18:38:41.853Z,21.50
2022-07-27T18:41:09.941Z,21.30
2022-07-27T18:43:38.097Z,21.20
2022-07-27T18:46:06.492Z,21.00
2022-07-27T18:48:35.671Z,20.90
2022-07-27T18:51:03.552Z,20.80
2022-07-27T18:53:31.344Z,20.60
2022-07-27T18:55:59.202Z,20.60
2022-07-27T18:58:27.610Z,20.50
2022-07-27T19:00:55.585Z,20.50
2022-07-27T19:03:24.761Z,20.40
2022-07-27T19:05:57.370Z,20.40
2022-07-27T19:08:25.658Z,20.40
2022-07-27T19:10:53.858Z,20.30
2022-07-27T19:13:22.065Z,20.30
2022-07-27T19:15:51.255Z,20.20
2022-07-27T19:18:23.979Z,20.10
2022-07-27T19:20:51.954Z,20.00
2022-07-27T19:23:21.153Z,19.90
2022-07-27T19:25:52.654Z,19.90
2022-07-27T19:28:22.090Z,19.80
2022-07-27T19:30:50.017Z,19.70
2022-07-27T19:33:18.768Z,19.60
2022-07-27T19:35:46.635Z,19.50
2022-07-27T19:38:14.482Z,19.40
2022-07-27T19:40:45.607Z,19.40
2022-07-27T19:43:15.284Z,19.30
2022-07-27T19:45:43.506Z,19.20
2022-07-27T19:48:11.875Z,19.20
2022-07-27T19:50:39.991Z,19.20
2022-07-27T19:53:07.948Z,19.20
2022-07-27T19:55:35.913Z,19.10
2022-07-27T19:58:05.129Z,19.00
2022-07-27T20:00:33.044Z,19.00
2022-07-27T20:03:00.918Z,19.00
2022-07-27T20:05:28.919Z,19.00
2022-07-27T20:07:56.724Z,18.90
2022-07-27T20:10:25.386Z,18.80
2022-07-27T20:12:53.277Z,18.80
2022-07-27T20:15:22.763Z,18.80
2022-07-27T20:17:50.876Z,18.70
2022-07-27T20:20:18.991Z,18.60
2022-07-27T20:22:46.874Z,18.60
2022-07-27T20:25:15.481Z,18.50
2022-07-27T20:27:43.908Z,18.50
2022-07-27T20:30:14.507Z,18.50
2022-07-27T20:32:43.882Z,18.50
2022-07-27T20:35:11.679Z,18.40
2022-07-27T20:37:39.515Z,18.40
2022-07-27T20:40:11.222Z,18.30
2022-07-27T20:42:40.367Z,18.20
2022-07-27T20:45:14.797Z,18.20
2022-07-27T20:47:44.358Z,18.00
2022-07-27T20:50:13.580Z,18.00
2022-07-27T20:52:42.219Z,17.90
2022-07-27T20:55:11.481Z,17.80
2022-07-27T20:57:39.419Z,17.70
2022-07-27T21:00:08.711Z,17.70
2022-07-27T21:02:36.761Z,17.70
2022-07-27T21:05:07.232Z,17.80
2022-07-27T21:07:35.246Z,17.80
2022-07-27T21:10:03.110Z,17.90
2022-07-27T21:12:30.919Z,17.90
2022-07-27T21:14:58.777Z,18.00
2022-07-27T21:17:27.052Z,17.90
2022-07-27T21:19:54.829Z,17.90
2022-07-27T21:22:23.997Z,17.90
2022-07-27T21:24:51.317Z,18.00
2022-07-27T21:27:21.052Z,18.00
2022-07-27T21:29:49.490Z,18.00
2022-07-27T21:32:17.504Z,17.90
2022-07-27T21:34:45.504Z,17.90
2022-07-27T21:37:13.416Z,17.90
2022-07-27T21:39:42.772Z,17.80
2022-07-27T21:42:19.986Z,17.80
2022-07-27T21:44:47.863Z,17.80
2022-07-27T21:47:15.685Z,17.80
2022-07-27T21:49:44.311Z,17.80
2022-07-27T21:52:12.273Z,17.70
2022-07-27T21:54:40.411Z,17.70
2022-07-27T21:57:09.536Z,17.70
2022-07-27T21:59:37.399Z,17.70
2022-07-27T22:02:05.411Z,17.70
2022-07-27T22:04:33.576Z,17.60
2022-07-27T22:07:01.623Z,17.50
2022-07-27T22:09:30.147Z,17.50
2022-07-27T22:11:57.991Z,17.60
2022-07-27T22:14:27.385Z,17.60
2022-07-27T22:16:55.317Z,17.60
2022-07-27T22:19:23.532Z,17.60
2022-07-27T22:21:51.358Z,17.60
2022-07-27T22:24:19.143Z,17.60
2022-07-27T22:26:46.974Z,17.60
2022-07-27T22:29:14.765Z,17.60
2022-07-27T22:31:43.931Z,17.50
2022-07-27T22:34:12.064Z,17.50
2022-07-27T22:36:40.133Z,17.50
2022-07-27T22:39:07.905Z,17.40
2022-07-27T22:41:35.717Z,17.30
2022-07-27T22:44:03.515Z,17.20
2022-07-27T22:46:31.339Z,17.20
2022-07-27T22:49:00.574Z,17.10
2022-07-27T22:51:50.150Z,17.10
2022-07-27T22:54:16.765Z,17.10
2022-07-27T22:56:45.238Z,17.50
2022-07-27T22:59:13.025Z,17.40
2022-07-27T23:01:46.267Z,17.50
2022-07-27T23:04:18.082Z,17.40
2022-07-27T23:06:46.467Z,17.10
2022-07-27T23:09:14.405Z,17.40
2022-07-27T23:11:42.311Z,17.30
2022-07-27T23:14:10.348Z,17.00
2022-07-27T23:16:38.816Z,17.00
2022-07-27T23:19:06.648Z,17.10
2022-07-27T23:21:37.443Z,17.50
2022-07-27T23:24:05.719Z,17.20
2022-07-27T23:26:33.622Z,17.40
2022-07-27T23:29:01.751Z,17.30
2022-07-27T23:31:29.628Z,17.20
2022-07-27T23:33:57.475Z,17.10
2022-07-27T23:36:25.296Z,17.00
2022-07-27T23:38:54.616Z,17.00
2022-07-27T23:41:22.454Z,17.00
2022-07-27T23:43:50.253Z,17.00
2022-07-27T23:46:18.106Z,17.10
2022-07-27T23:48:46.090Z,17.30
2022-07-27T23:51:17.691Z,17.20
2022-07-27T23:53:45.553Z,17.10
2022-07-27T23:56:14.727Z,17.10
2022-07-27T23:58:43.408Z,17.00
